Time;durP1;ratioP1;P1;durP2;ratioP2;P2;SDS_P1;SDS_P2;PMS_P1;PMS_P2;Temp;Humidity;BMP_temperature;BMP_pressure;BME280_temperature;BME280_humidity;BME280_pressure;Samples;Min_cycle;Max_cycle;Signal;HPM_P1;HPM_P2
2021/03/31 00:01:36;;;;;;;;;;;;;;;;;;5015225;28;19972;-66
2021/03/31 00:04:03;;;;;;;;;;;;;;;;;;5008926;28;19980;-66
2021/03/31 00:06:29;;;;;;;;;;;;;;;;;;5015920;28;19952;-66
2021/03/31 00:08:56;;;;;;;;;;;;;;;;;;5018634;28;20071;-66
2021/03/31 00:11:22;;;;;;;;;;;;;;;;;;5014081;28;20016;-66
2021/03/31 00:13:49;;;;;;;;;;;;;;;;;;5012580;28;20020;-66
2021/03/31 00:16:15;;;;;;;;;;;;;;;;;;5007690;28;19932;-66
2021/03/31 00:18:42;;;;;;;;;;;;;;;;;;5013268;28;19999;-66
2021/03/31 00:21:08;;;;;;;;;;;;;;;;;;5017198;28;20417;-66
2021/03/31 00:23:35;;;;;;;;;;;;;;;;;;5012397;28;20024;-66
2021/03/31 00:26:01;;;;;;;;;;;;;;;;;;5015133;28;19937;-66
2021/03/31 00:28:28;;;;;;;;;;;;;;;;;;5010309;28;19926;-66
2021/03/31 00:30:54;;;;;;;;;;;;;;;;;;5020294;28;19973;-66
2021/03/31 00:33:21;;;;;;;;;;;;;;;;;;5011761;28;19972;-66
2021/03/31 00:35:47;;;;;;;;;;;;;;;;;;5002892;28;19984;-66
2021/03/31 00:38:14;;;;;;;;;;;;;;;;;;5006053;28;19934;-66
2021/03/31 00:40:40;;;;;;;;;;;;;;;;;;5001321;28;19925;-66
2021/03/31 00:43:07;;;;;;;;;;;;;;;;;;4999059;28;20350;-66
2021/03/31 00:45:33;;;;;;;;;;;;;;;;;;5011988;28;19932;-67
2021/03/31 00:48:00;;;;;;;;;;;;;;;;;;5013841;28;19955;-67
2021/03/31 00:50:26;;;;;;;;;;;;;;;;;;5008926;28;19932;-67
2021/03/31 00:52:53;;;;;;;;;;;;;;;;;;5020032;28;20016;-69
2021/03/31 00:55:19;;;;;;;;;;;;;;;;;;5009712;28;19972;-67
2021/03/31 00:57:46;;;;;;;;;;;;;;;;;;5009853;28;20024;-67
2021/03/31 01:00:12;;;;;;;;;;;;;;;;;;5010367;28;19932;-67
2021/03/31 01:02:39;;;;;;;;;;;;;;;;;;5012165;28;19945;-67
2021/03/31 01:05:05;;;;;;;;;;;;;;;;;;5011255;28;19925;-67
2021/03/31 01:07:32;;;;;;;;;;;;;;;;;;5007245;28;19933;-67
2021/03/31 01:09:58;;;;;;;;;;;;;;;;;;5003919;28;19926;-66
2021/03/31 01:12:25;;;;;;;;;;;;;;;;;;5012745;28;19925;-67
2021/03/31 01:14:51;;;;;;;;;;;;;;;;;;5012678;28;19935;-66
2021/03/31 01:17:18;;;;;;;;;;;;;;;;;;5013920;28;20011;-67
2021/03/31 01:19:44;;;;;;;;;;;;;;;;;;5013642;28;19926;-68
2021/03/31 01:22:11;;;;;;;;;;;;;;;;;;5015901;28;19929;-67
2021/03/31 01:24:37;;;;;;;;;;;;;;;;;;5014318;28;19931;-66
2021/03/31 01:27:04;;;;;;;;;;;;;;;;;;5004502;28;19925;-66
2021/03/31 01:29:30;;;;;;;;;;;;;;;;;;5000615;28;19925;-67
2021/03/31 01:31:57;;;;;;;;;;;;;;;;;;5004614;28;19930;-67
2021/03/31 01:34:23;;;;;;;;;;;;;;;;;;4998766;28;19932;-66
2021/03/31 01:36:50;;;;;;;;;;;;;;;;;;5006117;28;19926;-66
2021/03/31 01:39:16;;;;;;;;;;;;;;;;;;5013834;28;19926;-66
2021/03/31 01:41:42;;;;;;;;;;;;;;;;;;5012843;28;19932;-66
2021/03/31 01:44:09;;;;;;;;;;;;;;;;;;5013306;28;19926;-66
2021/03/31 01:46:36;;;;;;;;;;;;;;;;;;5011866;28;20270;-66
2021/03/31 01:49:02;;;;;;;;;;;;;;;;;;5003867;28;19945;-66
2021/03/31 01:51:29;;;;;;;;;;;;;;;;;;5008864;28;19934;-66
2021/03/31 01:53:55;;;;;;;;;;;;;;;;;;5020832;28;19925;-66
2021/03/31 01:56:22;;;;;;;;;;;;;;;;;;5022553;28;19929;-66
2021/03/31 01:58:48;;;;;;;;;;;;;;;;;;5004608;28;20405;-66
2021/03/31 02:01:14;;;;;;;;;;;;;;;;;;5009959;28;19943;-66
2021/03/31 02:03:41;;;;;;;;;;;;;;;;;;5017379;28;20391;-66
2021/03/31 02:06:08;;;;;;;;;;;;;;;;;;5010554;28;19925;-66
2021/03/31 02:08:34;;;;;;;;;;;;;;;;;;5014654;28;19926;-66
2021/03/31 02:11:01;;;;;;;;;;;;;;;;;;4999359;28;19930;-66
2021/03/31 02:13:27;;;;;;;;;;;;;;;;;;5005298;28;19933;-66
2021/03/31 02:15:53;;;;;;;;;;;;;;;;;;5012275;28;19995;-66
2021/03/31 02:18:20;;;;;;;;;;;;;;;;;;5011743;28;21156;-67
2021/03/31 02:20:46;;;;;;;;;;;;;;;;;;5013400;28;19925;-66
2021/03/31 02:23:13;;;;;;;;;;;;;;;;;;5013084;28;19931;-66
2021/03/31 02:25:39;;;;;;;;;;;;;;;;;;5016819;28;19926;-66
2021/03/31 02:28:06;;;;;;;;;;;;;;;;;;5018347;28;20385;-66
2021/03/31 02:30:32;;;;;;;;;;;;;;;;;;5015629;28;19932;-66
2021/03/31 02:32:59;;;;;;;;;;;;;;;;;;5019272;28;19926;-66
2021/03/31 02:35:25;;;;;;;;;;;;;;;;;;5004678;28;19932;-66
2021/03/31 02:37:52;;;;;;;;;;;;;;;;;;5013416;28;19941;-66
2021/03/31 02:40:18;;;;;;;;;;;;;;;;;;5021541;28;20547;-66
2021/03/31 02:42:45;;;;;;;;;;;;;;;;;;5013809;28;19933;-66
2021/03/31 02:45:11;;;;;;;;;;;;;;;;;;5027882;28;19929;-67
2021/03/31 02:47:38;;;;;;;;;;;;;;;;;;5024029;28;19925;-66
2021/03/31 02:50:04;;;;;;;;;;;;;;;;;;5018227;28;20400;-66
2021/03/31 02:52:31;;;;;;;;;;;;;;;;;;5015498;28;19938;-66
2021/03/31 02:54:57;;;;;;;;;;;;;;;;;;5010976;28;20385;-65
2021/03/31 02:57:24;;;;;;;;;;;;;;;;;;5030570;28;19944;-66
2021/03/31 02:59:50;;;;;;;;;;;;;;;;;;5022330;28;19934;-66
2021/03/31 03:02:17;;;;;;;;;;;;;;;;;;5017196;28;19934;-66
2021/03/31 03:04:43;;;;;;;;;;;;;;;;;;5013879;28;19927;-69
2021/03/31 03:07:10;;;;;;;;;;;;;;;;;;5022496;28;20042;-66
2021/03/31 03:09:36;;;;;;;;;;;;;;;;;;5021884;28;19988;-66
2021/03/31 03:12:03;;;;;;;;;;;;;;;;;;5022193;28;20082;-66
2021/03/31 03:14:29;;;;;;;;;;;;;;;;;;5008277;28;19965;-66
2021/03/31 03:16:56;;;;;;;;;;;;;;;;;;5012644;28;20032;-66
2021/03/31 03:19:22;;;;;;;;;;;;;;;;;;5017794;28;19925;-66
2021/03/31 03:21:49;;;;;;;;;;;;;;;;;;5004954;28;19926;-67
2021/03/31 03:24:15;;;;;;;;;;;;;;;;;;5010208;28;19926;-66
2021/03/31 03:26:42;;;;;;;;;;;;;;;;;;5008403;28;19930;-67
2021/03/31 03:29:09;;;;;;;;;;;;;;;;;;5021101;28;19932;-66
2021/03/31 03:31:36;;;;;;;;;;;;;;;;;;5024410;28;19926;-66
2021/03/31 03:34:02;;;;;;;;;;;;;;;;;;5013500;28;19947;-66
2021/03/31 03:36:29;;;;;;;;;;;;;;;;;;5009076;28;19940;-66
2021/03/31 03:38:55;;;;;;;;;;;;;;;;;;5009667;28;19933;-67
2021/03/31 03:41:22;;;;;;;;;;;;;;;;;;5010811;28;20040;-66
2021/03/31 03:43:48;;;;;;;;;;;;;;;;;;5020876;28;19931;-66
2021/03/31 03:46:15;;;;;;;;;;;;;;;;;;5013204;28;19932;-66
2021/03/31 03:48:41;;;;;;;;;;;;;;;;;;5014830;28;19925;-66
2021/03/31 03:51:08;;;;;;;;;;;;;;;;;;5009471;28;19929;-66
2021/03/31 03:53:34;;;;;;;;;;;;;;;;;;5009261;28;19925;-67
2021/03/31 03:56:01;;;;;;;;;;;;;;;;;;5014418;28;20293;-66
2021/03/31 03:58:27;;;;;;;;;;;;;;;;;;5007814;28;19926;-67
2021/03/31 04:00:54;;;;;;;;;;;;;;;;;;5018971;28;19979;-66
2021/03/31 04:03:20;;;;;;;;;;;;;;;;;;5019640;28;20493;-65
2021/03/31 04:05:47;;;;;;;;;;;;;;;;;;5041626;22;19929;-65
2021/03/31 04:08:14;;;;;;;;;;;;;;;;;;5049710;28;19979;-66
2021/03/31 04:10:40;;;;;;;;;;;;;;;;;;5050709;28;20171;-66
2021/03/31 04:13:07;;;;;;;;;;;;;;;;;;5052988;28;19932;-65
2021/03/31 04:15:33;;;;;;;;;;;;;;;;;;5045018;28;20432;-64
2021/03/31 04:18:00;;;;;;;;;;;;;;;;;;5054697;28;19924;-65
2021/03/31 04:20:26;;;;;;;;;;;;;;;;;;5054807;28;20412;-65
2021/03/31 04:22:53;;;;;;;;;;;;;;;;;;5051207;28;20459;-65
2021/03/31 04:25:20;;;;;;;;;;;;;;;;;;5054949;28;20554;-66
2021/03/31 04:27:46;;;;;;;;;;;;;;;;;;5055153;28;19952;-66
2021/03/31 04:30:13;;;;;;;;;;;;;;;;;;5044992;28;19971;-66
2021/03/31 04:32:39;;;;;;;;;;;;;;;;;;5052645;28;20009;-66
2021/03/31 04:35:06;;;;;;;;;;;;;;;;;;5045713;28;19925;-64
2021/03/31 04:37:32;;;;;;;;;;;;;;;;;;5055497;28;19925;-66
2021/03/31 04:39:59;;;;;;;;;;;;;;;;;;5049897;28;20384;-67
2021/03/31 04:42:25;;;;;;;;;;;;;;;;;;5051485;28;20934;-64
2021/03/31 04:44:52;;;;;;;;;;;;;;;;;;5055097;28;19929;-65
2021/03/31 04:47:19;;;;;;;;;;;;;;;;;;5056186;28;19931;-65
2021/03/31 04:49:45;;;;;;;;;;;;;;;;;;5056791;28;19978;-65
2021/03/31 04:52:12;;;;;;;;;;;;;;;;;;5052590;28;19975;-64
2021/03/31 04:54:38;;;;;;;;;;;;;;;;;;5056495;28;19925;-65
2021/03/31 04:57:05;;;;;;;;;;;;;;;;;;5048257;28;19932;-65
2021/03/31 04:59:31;;;;;;;;;;;;;;;;;;5053481;28;19929;-65
2021/03/31 05:01:58;;;;;;;;;;;;;;;;;;5053044;28;19975;-65
2021/03/31 05:04:24;;;;;;;;;;;;;;;;;;5050448;28;20018;-64
2021/03/31 05:06:51;;;;;;;;;;;;;;;;;;5054346;28;20012;-65
2021/03/31 05:09:18;;;;;;;;;;;;;;;;;;5049009;28;20332;-65
2021/03/31 05:11:44;;;;;;;;;;;;;;;;;;5049635;28;19924;-67
2021/03/31 05:14:11;;;;;;;;;;;;;;;;;;5052035;28;19925;-66
2021/03/31 05:16:37;;;;;;;;;;;;;;;;;;5049859;28;19925;-66
2021/03/31 05:19:04;;;;;;;;;;;;;;;;;;5051232;28;20372;-65
2021/03/31 05:21:30;;;;;;;;;;;;;;;;;;5050125;28;19939;-66
2021/03/31 05:23:57;;;;;;;;;;;;;;;;;;5049110;28;20392;-68
2021/03/31 05:26:23;;;;;;;;;;;;;;;;;;5046381;28;19968;-65
2021/03/31 05:28:50;;;;;;;;;;;;;;;;;;5047176;28;19954;-65
2021/03/31 05:31:16;;;;;;;;;;;;;;;;;;5044187;28;19931;-64
2021/03/31 05:33:43;;;;;;;;;;;;;;;;;;5038163;28;19925;-66
2021/03/31 05:36:12;;;;;;;;;;;;;;;;;;5050989;28;20402;-66
2021/03/31 05:38:43;;;;;;;;;;;;;;;;;;5047034;28;19975;-64
2021/03/31 05:41:09;;;;;;;;;;;;;;;;;;5048167;28;19925;-65
2021/03/31 05:43:36;;;;;;;;;;;;;;;;;;5048341;28;20532;-64
2021/03/31 05:46:02;;;;;;;;;;;;;;;;;;5047713;28;19933;-65
2021/03/31 05:48:30;;;;;;;;;;;;;;;;;;5044334;28;20356;-65
2021/03/31 05:50:57;;;;;;;;;;;;;;;;;;5038684;28;19956;-65
2021/03/31 05:53:23;;;;;;;;;;;;;;;;;;5046637;28;20269;-65
2021/03/31 05:55:50;;;;;;;;;;;;;;;;;;5048531;28;20042;-65
2021/03/31 05:58:16;;;;;;;;;;;;;;;;;;5037336;28;20257;-67
2021/03/31 06:00:43;;;;;;;;;;;;;;;;;;5048904;28;20016;-66
2021/03/31 06:03:09;;;;;;;;;;;;;;;;;;5042529;28;19933;-66
2021/03/31 06:05:36;;;;;;;;;;;;;;;;;;5038842;28;19924;-66
2021/03/31 06:08:02;;;;;;;;;;;;;;;;;;5039607;28;19926;-66
2021/03/31 06:10:29;;;;;;;;;;;;;;;;;;5036043;28;20112;-67
2021/03/31 06:12:56;;;;;;;;;;;;;;;;;;5043352;28;20014;-66
2021/03/31 06:15:24;;;;;;;;;;;;;;;;;;5045610;28;20718;-66
2021/03/31 06:17:51;;;;;;;;;;;;;;;;;;5047162;28;19929;-66
2021/03/31 06:20:18;;;;;;;;;;;;;;;;;;5041710;28;19932;-66
2021/03/31 06:22:54;;;;;;;;;;;;;;;;;;5043585;28;19925;-66
2021/03/31 06:25:22;;;;;;;;;;;;;;;;;;5042195;28;19931;-65
2021/03/31 06:27:49;;;;;;;;;;;;;;;;;;5041691;28;19931;-65
2021/03/31 06:30:15;;;;;;;;;;;;;;;;;;5041116;28;19929;-68
2021/03/31 06:32:42;;;;;;;;;;;;;;;;;;5048341;28;19929;-64
2021/03/31 06:35:08;;;;;;;;;;;;;;;;;;5046139;28;19925;-66
2021/03/31 06:37:37;;;;;;;;;;;;;;;;;;5043720;28;20369;-66
2021/03/31 06:40:04;;;;;;;;;;;;;;;;;;5050821;28;19925;-64
2021/03/31 06:42:31;;;;;;;;;;;;;;;;;;5049254;28;19955;-64
2021/03/31 06:45:01;;;;;;;;;;;;;;;;;;5040241;28;20025;-64
2021/03/31 06:47:29;;;;;;;;;;;;;;;;;;5041526;28;19944;-64
2021/03/31 06:49:56;;;;;;;;;;;;;;;;;;5041884;28;19929;-64
2021/03/31 06:52:22;;;;;;;;;;;;;;;;;;5042812;28;19932;-65
2021/03/31 06:54:49;;;;;;;;;;;;;;;;;;5042476;28;19932;-64
2021/03/31 06:57:15;;;;;;;;;;;;;;;;;;5046299;28;20347;-65
2021/03/31 06:59:42;;;;;;;;;;;;;;;;;;5042041;28;19925;-65
2021/03/31 07:02:08;;;;;;;;;;;;;;;;;;5041840;28;19970;-65
2021/03/31 07:04:35;;;;;;;;;;;;;;;;;;5040862;28;20436;-65
2021/03/31 07:07:03;;;;;;;;;;;;;;;;;;5041439;28;19929;-63
2021/03/31 07:09:29;;;;;;;;;;;;;;;;;;5041151;28;20388;-63
2021/03/31 07:11:56;;;;;;;;;;;;;;;;;;5043455;28;19939;-63
2021/03/31 07:14:22;;;;;;;;;;;;;;;;;;5044769;28;20311;-64
2021/03/31 07:16:49;;;;;;;;;;;;;;;;;;5040924;28;20003;-64
2021/03/31 07:19:15;;;;;;;;;;;;;;;;;;5040660;28;19924;-64
2021/03/31 07:21:42;;;;;;;;;;;;;;;;;;5042174;28;20002;-64
2021/03/31 07:24:08;;;;;;;;;;;;;;;;;;5043437;28;19979;-64
2021/03/31 07:26:35;;;;;;;;;;;;;;;;;;5044874;28;19974;-63
2021/03/31 07:29:01;;;;;;;;;;;;;;;;;;5044335;28;20011;-63
2021/03/31 07:31:29;;;;;;;;;;;;;;;;;;5045183;28;20450;-63
2021/03/31 07:33:55;;;;;;;;;;;;;;;;;;5047428;28;19929;-65
2021/03/31 07:36:22;;;;;;;;;;;;;;;;;;5045710;28;19931;-65
2021/03/31 07:38:48;;;;;;;;;;;;;;;;;;5046027;28;19983;-64
2021/03/31 07:41:15;;;;;;;;;;;;;;;;;;5044658;28;19929;-65
2021/03/31 07:43:41;;;;;;;;;;;;;;;;;;5045594;28;20320;-65
2021/03/31 07:46:08;;;;;;;;;;;;;;;;;;5044242;28;20345;-64
2021/03/31 07:48:35;;;;;;;;;;;;;;;;;;5043377;28;20288;-65
2021/03/31 07:51:01;;;;;;;;;;;;;;;;;;5044921;28;20039;-65
2021/03/31 07:53:28;;;;;;;;;;;;;;;;;;5044248;28;19925;-65
2021/03/31 07:55:54;;;;;;;;;;;;;;;;;;5047521;28;19932;-65
2021/03/31 07:58:21;;;;;;;;;;;;;;;;;;5047742;28;20293;-64
2021/03/31 08:00:48;;;;;;;;;;;;;;;;;;5041944;28;20019;-64
2021/03/31 08:03:14;;;;;;;;;;;;;;;;;;5045575;28;19932;-62
2021/03/31 08:05:41;;;;;;;;;;;;;;;;;;5048519;28;20218;-64
2021/03/31 08:08:07;;;;;;;;;;;;;;;;;;5049560;28;19935;-63
2021/03/31 08:10:37;;;;;;;;;;;;;;;;;;5044934;28;20023;-65
2021/03/31 08:13:03;;;;;;;;;;;;;;;;;;5051063;28;19924;-64
2021/03/31 08:15:30;;;;;;;;;;;;;;;;;;5049663;28;20373;-64
2021/03/31 08:17:56;;;;;;;;;;;;;;;;;;5049159;28;20107;-65
2021/03/31 08:20:23;;;;;;;;;;;;;;;;;;5044803;28;19978;-66
2021/03/31 08:22:49;;;;;;;;;;;;;;;;;;5050482;28;19924;-66
2021/03/31 08:25:16;;;;;;;;;;;;;;;;;;5050884;28;19925;-64
2021/03/31 08:27:42;;;;;;;;;;;;;;;;;;5048004;28;20303;-65
2021/03/31 08:30:09;;;;;;;;;;;;;;;;;;5049076;28;19929;-65
2021/03/31 08:32:35;;;;;;;;;;;;;;;;;;5050296;28;20671;-65
2021/03/31 08:35:02;;;;;;;;;;;;;;;;;;5048836;28;19935;-65
2021/03/31 08:37:28;;;;;;;;;;;;;;;;;;5049584;28;19931;-65
2021/03/31 08:39:55;;;;;;;;;;;;;;;;;;5048361;28;19933;-62
2021/03/31 08:42:21;;;;;;;;;;;;;;;;;;5050140;28;19929;-64
2021/03/31 08:44:52;;;;;;;;;;;;;;;;;;5053880;28;19926;-64
2021/03/31 08:47:19;;;;;;;;;;;;;;;;;;5056234;28;19936;-65
2021/03/31 08:49:45;;;;;;;;;;;;;;;;;;5052065;28;19933;-64
2021/03/31 08:52:12;;;;;;;;;;;;;;;;;;5047574;28;20292;-65
2021/03/31 08:54:38;;;;;;;;;;;;;;;;;;5053866;28;19925;-65
2021/03/31 08:57:05;;;;;;;;;;;;;;;;;;5066843;28;20385;-64
2021/03/31 08:59:32;;;;;;;;;;;;;;;;;;5062906;28;20005;-62
2021/03/31 09:01:58;;;;;;;;;;;;;;;;;;5061357;28;19952;-64
2021/03/31 09:04:26;;;;;;;;;;;;;;;;;;5048275;28;19978;-64
2021/03/31 09:06:52;;;;;;;;;;;;;;;;;;5042351;28;19932;-64
2021/03/31 09:09:19;;;;;;;;;;;;;;;;;;5045918;28;19947;-65
2021/03/31 09:11:45;;;;;;;;;;;;;;;;;;5040755;28;19948;-66
2021/03/31 09:14:12;;;;;;;;;;;;;;;;;;5045347;28;19957;-64
2021/03/31 09:16:38;;;;;;;;;;;;;;;;;;5046524;28;19979;-66
2021/03/31 09:19:05;;;;;;;;;;;;;;;;;;5046044;28;21303;-65
2021/03/31 09:21:36;;;;;;;;;;;;;;;;;;5042384;28;20020;-65
2021/03/31 09:24:03;;;;;;;;;;;;;;;;;;5045938;28;19931;-65
2021/03/31 09:26:29;;;;;;;;;;;;;;;;;;5045024;28;19967;-65
2021/03/31 09:28:56;;;;;;;;;;;;;;;;;;5041529;28;20020;-65
2021/03/31 09:31:23;;;;;;;;;;;;;;;;;;5047861;28;20281;-64
2021/03/31 09:33:50;;;;;;;;;;;;;;;;;;5048427;28;20312;-66
2021/03/31 09:36:16;;;;;;;;;;;;;;;;;;5047116;28;19961;-65
2021/03/31 09:38:43;;;;;;;;;;;;;;;;;;5047363;28;20051;-66
2021/03/31 09:41:09;;;;;;;;;;;;;;;;;;5036491;28;20327;-65
2021/03/31 09:43:36;;;;;;;;;;;;;;;;;;5046876;28;19925;-66
2021/03/31 09:46:02;;;;;;;;;;;;;;;;;;5042625;28;20292;-66
2021/03/31 09:48:29;;;;;;;;;;;;;;;;;;5044822;28;19925;-65
2021/03/31 09:50:55;;;;;;;;;;;;;;;;;;5040720;28;19930;-65
2021/03/31 09:53:22;;;;;;;;;;;;;;;;;;5044668;28;20534;-65
2021/03/31 09:55:48;;;;;;;;;;;;;;;;;;5039075;28;20011;-64
2021/03/31 09:58:15;;;;;;;;;;;;;;;;;;5041776;28;19931;-66
2021/03/31 10:00:41;;;;;;;;;;;;;;;;;;5038973;28;20281;-65
2021/03/31 10:03:09;;;;;;;;;;;;;;;;;;5040546;28;19925;-65
2021/03/31 10:05:35;;;;;;;;;;;;;;;;;;5037998;28;20019;-66
2021/03/31 10:08:02;;;;;;;;;;;;;;;;;;5041889;28;19964;-65
2021/03/31 10:10:29;;;;;;;;;;;;;;;;;;5041563;28;19932;-65
2021/03/31 10:12:55;;;;;;;;;;;;;;;;;;5044414;28;19929;-66
2021/03/31 10:15:22;;;;;;;;;;;;;;;;;;5039704;28;19929;-65
2021/03/31 10:17:48;;;;;;;;;;;;;;;;;;5040036;28;19932;-64
2021/03/31 10:20:15;;;;;;;;;;;;;;;;;;5042882;28;19925;-65
2021/03/31 10:22:41;;;;;;;;;;;;;;;;;;5038808;28;20341;-66
2021/03/31 10:25:08;;;;;;;;;;;;;;;;;;5043434;28;20019;-66
2021/03/31 10:27:35;;;;;;;;;;;;;;;;;;5037804;28;19929;-65
2021/03/31 10:30:01;;;;;;;;;;;;;;;;;;5043257;28;19928;-65
2021/03/31 10:32:27;;;;;;;;;;;;;;;;;;5040696;28;19925;-64
2021/03/31 10:34:54;;;;;;;;;;;;;;;;;;5041495;28;20011;-65
2021/03/31 10:37:23;;;;;;;;;;;;;;;;;;5044025;28;19932;-63
2021/03/31 10:48:08;;;;;;;;;;;;;;;;;;5043667;28;20005;-65
2021/03/31 10:50:40;;;;;;;;;;;;;;;;;;5036729;28;20494;-65
2021/03/31 10:53:07;;;;;;;;;;;;;;;;;;5041684;28;19943;-65
2021/03/31 10:55:33;;;;;;;;;;;;;;;;;;5046359;28;20335;-65
2021/03/31 10:58:00;;;;;;;;;;;;;;;;;;5042294;28;19925;-66
2021/03/31 11:00:26;;;;;;;;;;;;;;;;;;5040748;28;20015;-65
2021/03/31 11:02:53;;;;;;;;;;;;;;;;;;5046770;28;19932;-66
2021/03/31 11:05:19;;;;;;;;;;;;;;;;;;5037895;28;19978;-66
2021/03/31 11:07:46;;;;;;;;;;;;;;;;;;5046463;28;19931;-65
2021/03/31 11:10:12;;;;;;;;;;;;;;;;;;5042891;28;19929;-66
2021/03/31 11:12:39;;;;;;;;;;;;;;;;;;5044021;28;20011;-66
2021/03/31 11:15:05;;;;;;;;;;;;;;;;;;5044834;28;19925;-65
2021/03/31 11:17:37;;;;;;;;;;;;;;;;;;5044815;28;19928;-65
2021/03/31 11:20:12;;;;;;;;;;;;;;;;;;5045591;28;20016;-65
2021/03/31 11:25:39;;;;;;;;;;;;;;;;;;5043718;28;19936;-64
2021/03/31 11:28:07;;;;;;;;;;;;;;;;;;5045188;28;20086;-64
2021/03/31 11:30:34;;;;;;;;;;;;;;;;;;5044144;28;19952;-65
2021/03/31 11:33:00;;;;;;;;;;;;;;;;;;5043482;28;20444;-64
2021/03/31 11:35:27;;;;;;;;;;;;;;;;;;5048157;28;19925;-65
2021/03/31 11:37:53;;;;;;;;;;;;;;;;;;5043192;28;19931;-65
2021/03/31 11:40:20;;;;;;;;;;;;;;;;;;5039578;28;19944;-64
2021/03/31 11:42:47;;;;;;;;;;;;;;;;;;5043501;28;19967;-65
2021/03/31 11:45:13;;;;;;;;;;;;;;;;;;5047560;28;19928;-65
2021/03/31 11:47:40;;;;;;;;;;;;;;;;;;5047248;28;19932;-65
2021/03/31 11:50:06;;;;;;;;;;;;;;;;;;5045123;28;19925;-65
2021/03/31 11:52:33;;;;;;;;;;;;;;;;;;5046444;28;19925;-65
2021/03/31 11:54:59;;;;;;;;;;;;;;;;;;5044811;28;20064;-65
2021/03/31 11:57:25;;;;;;;;;;;;;;;;;;5046322;28;20282;-65
2021/03/31 11:59:52;;;;;;;;;;;;;;;;;;5045836;28;20359;-64
2021/03/31 12:02:18;;;;;;;;;;;;;;;;;;5045859;28;19971;-65
2021/03/31 12:04:45;;;;;;;;;;;;;;;;;;5044868;28;19968;-65
2021/03/31 12:07:13;;;;;;;;;;;;;;;;;;5040699;28;20344;-65
2021/03/31 12:09:41;;;;;;;;;;;;;;;;;;5042099;28;19998;-65
2021/03/31 12:12:07;;;;;;;;;;;;;;;;;;5041398;28;19948;-64
2021/03/31 12:14:35;;;;;;;;;;;;;;;;;;5044787;28;20395;-65
2021/03/31 12:17:01;;;;;;;;;;;;;;;;;;5041824;28;19928;-65
2021/03/31 12:19:28;;;;;;;;;;;;;;;;;;5047107;28;20380;-67
2021/03/31 12:21:54;;;;;;;;;;;;;;;;;;5045534;28;20093;-65
2021/03/31 12:24:20;;;;;;;;;;;;;;;;;;5043747;28;20420;-65
2021/03/31 12:26:47;;;;;;;;;;;;;;;;;;5043828;28;20340;-66
2021/03/31 12:29:13;;;;;;;;;;;;;;;;;;5043581;28;19925;-66
2021/03/31 12:31:40;;;;;;;;;;;;;;;;;;5046949;28;19933;-65
2021/03/31 12:34:06;;;;;;;;;;;;;;;;;;5043467;28;19947;-65
2021/03/31 12:36:33;;;;;;;;;;;;;;;;;;5044771;28;19925;-65
2021/03/31 12:38:59;;;;;;;;;;;;;;;;;;5043082;28;19933;-66
2021/03/31 12:41:26;;;;;;;;;;;;;;;;;;5043615;28;19978;-64
2021/03/31 12:43:52;;;;;;;;;;;;;;;;;;5043840;28;20365;-64
2021/03/31 12:46:19;;;;;;;;;;;;;;;;;;5045214;28;20408;-65
2021/03/31 12:48:45;;;;;;;;;;;;;;;;;;5044142;28;19929;-67
2021/03/31 12:51:15;;;;;;;;;;;;;;;;;;5044299;28;20035;-66
2021/03/31 12:53:44;;;;;;;;;;;;;;;;;;5044379;28;19967;-65
2021/03/31 12:56:11;;;;;;;;;;;;;;;;;;5044700;28;20335;-65
2021/03/31 12:58:40;;;;;;;;;;;;;;;;;;5043372;28;19925;-65
2021/03/31 13:01:12;;;;;;;;;;;;;;;;;;5044231;28;19978;-66
2021/03/31 13:03:39;;;;;;;;;;;;;;;;;;5045223;28;20361;-65
2021/03/31 13:06:05;;;;;;;;;;;;;;;;;;5043365;28;20027;-66
2021/03/31 13:08:32;;;;;;;;;;;;;;;;;;5041117;28;20080;-65
2021/03/31 13:10:59;;;;;;;;;;;;;;;;;;5040640;28;20301;-64
2021/03/31 13:13:42;;;;;;;;;;;;;;;;;;5045151;28;20447;-64
2021/03/31 13:16:10;;;;;;;;;;;;;;;;;;5040870;28;19926;-66
2021/03/31 13:26:57;;;;;;;;;;;;;;;;;;5041881;28;19924;-65
2021/03/31 13:32:06;;;;;;;;;;;;;;;;;;5023677;28;20016;-65
2021/03/31 13:34:34;;;;;;;;;;;;;;;;;;5041417;28;19971;-64
2021/03/31 13:37:05;;;;;;;;;;;;;;;;;;5041992;28;19928;-64
2021/03/31 13:39:37;;;;;;;;;;;;;;;;;;5040674;28;20337;-65
2021/03/31 13:42:04;;;;;;;;;;;;;;;;;;5039648;28;19925;-66
2021/03/31 13:44:30;;;;;;;;;;;;;;;;;;5041955;28;19925;-66
2021/03/31 13:46:59;;;;;;;;;;;;;;;;;;5041006;28;19970;-66
2021/03/31 13:49:30;;;;;;;;;;;;;;;;;;5037598;28;20385;-64
2021/03/31 13:52:02;;;;;;;;;;;;;;;;;;5040065;28;19925;-64
2021/03/31 13:54:31;;;;;;;;;;;;;;;;;;5042082;28;19949;-64
2021/03/31 13:56:58;;;;;;;;;;;;;;;;;;5043438;28;19932;-66
2021/03/31 13:59:27;;;;;;;;;;;;;;;;;;5039844;28;19979;-65
2021/03/31 14:01:54;;;;;;;;;;;;;;;;;;5042800;28;19933;-65
2021/03/31 14:04:20;;;;;;;;;;;;;;;;;;5043536;28;20059;-65
2021/03/31 14:06:47;;;;;;;;;;;;;;;;;;5039687;28;20005;-65
2021/03/31 14:09:13;;;;;;;;;;;;;;;;;;5044479;28;19925;-65
2021/03/31 14:11:42;;;;;;;;;;;;;;;;;;5041314;28;19925;-65
2021/03/31 14:14:08;;;;;;;;;;;;;;;;;;5044138;28;21363;-65
2021/03/31 14:16:35;;;;;;;;;;;;;;;;;;5039319;28;20015;-65
2021/03/31 14:19:02;;;;;;;;;;;;;;;;;;5036987;28;20097;-65
2021/03/31 14:21:28;;;;;;;;;;;;;;;;;;5043631;28;19924;-65
2021/03/31 14:23:55;;;;;;;;;;;;;;;;;;5042158;28;20305;-65
2021/03/31 14:26:21;;;;;;;;;;;;;;;;;;5043733;28;20107;-65
2021/03/31 14:28:48;;;;;;;;;;;;;;;;;;5041630;28;20031;-64
2021/03/31 14:31:14;;;;;;;;;;;;;;;;;;5046636;28;20012;-65
2021/03/31 14:33:41;;;;;;;;;;;;;;;;;;5054642;28;19933;-64
2021/03/31 14:36:07;;;;;;;;;;;;;;;;;;5059914;28;20357;-65
2021/03/31 14:38:34;;;;;;;;;;;;;;;;;;5048787;28;19925;-64
2021/03/31 14:41:00;;;;;;;;;;;;;;;;;;5052745;28;20117;-65
2021/03/31 14:43:27;;;;;;;;;;;;;;;;;;5058765;28;19932;-65
2021/03/31 14:45:53;;;;;;;;;;;;;;;;;;5060992;28;20019;-65
2021/03/31 14:48:20;;;;;;;;;;;;;;;;;;5057938;28;19963;-64
2021/03/31 14:50:46;;;;;;;;;;;;;;;;;;5049848;28;20234;-65
2021/03/31 15:01:27;;;;;;;;;;;;;;;;;;5045986;28;20007;-65
2021/03/31 15:03:54;;;;;;;;;;;;;;;;;;5049750;28;20027;-65
2021/03/31 15:06:20;;;;;;;;;;;;;;;;;;5046780;28;20305;-66
2021/03/31 15:08:47;;;;;;;;;;;;;;;;;;5046035;28;20007;-66
2021/03/31 15:11:13;;;;;;;;;;;;;;;;;;5048540;28;19925;-65
2021/03/31 15:13:40;;;;;;;;;;;;;;;;;;5045873;28;19939;-62
2021/03/31 15:16:06;;;;;;;;;;;;;;;;;;5048015;28;20062;-65
2021/03/31 15:18:33;;;;;;;;;;;;;;;;;;5044545;28;20020;-65
2021/03/31 15:21:04;;;;;;;;;;;;;;;;;;5045355;28;20289;-63
2021/03/31 15:23:41;;;;;;;;;;;;;;;;;;5044051;28;20482;-66
2021/03/31 15:26:07;;;;;;;;;;;;;;;;;;5045507;28;20381;-66
2021/03/31 15:28:35;;;;;;;;;;;;;;;;;;5048803;28;19971;-66
2021/03/31 15:31:01;;;;;;;;;;;;;;;;;;5046545;28;19929;-66
2021/03/31 15:33:28;;;;;;;;;;;;;;;;;;5048920;28;20011;-65
2021/03/31 15:35:54;;;;;;;;;;;;;;;;;;5047599;28;20031;-65
2021/03/31 15:38:21;;;;;;;;;;;;;;;;;;5047421;28;20407;-63
2021/03/31 15:40:47;;;;;;;;;;;;;;;;;;5049146;28;20369;-64
2021/03/31 15:43:14;;;;;;;;;;;;;;;;;;5045339;28;20360;-64
2021/03/31 15:45:41;;;;;;;;;;;;;;;;;;5044874;28;19972;-65
2021/03/31 15:48:09;;;;;;;;;;;;;;;;;;5048729;28;19933;-64
2021/03/31 15:50:35;;;;;;;;;;;;;;;;;;5045650;28;19929;-63
2021/03/31 15:53:02;;;;;;;;;;;;;;;;;;5045499;28;21067;-65
2021/03/31 15:55:28;;;;;;;;;;;;;;;;;;5046180;28;19925;-65
2021/03/31 15:57:55;;;;;;;;;;;;;;;;;;5045424;28;20023;-64
2021/03/31 16:00:21;;;;;;;;;;;;;;;;;;5044883;28;19979;-64
2021/03/31 16:02:50;;;;;;;;;;;;;;;;;;5048812;28;20011;-65
2021/03/31 16:05:17;;;;;;;;;;;;;;;;;;5068021;22;20160;-65
2021/03/31 16:07:44;;;;;;;;;;;;;;;;;;5092454;28;19985;-67
2021/03/31 16:10:10;;;;;;;;;;;;;;;;;;5085457;28;20319;-66
2021/03/31 16:12:37;;;;;;;;;;;;;;;;;;5083301;28;19987;-66
2021/03/31 16:15:03;;;;;;;;;;;;;;;;;;5083625;28;19936;-66
2021/03/31 16:17:31;;;;;;;;;;;;;;;;;;5081825;28;20304;-66
2021/03/31 16:19:57;;;;;;;;;;;;;;;;;;5084330;28;19936;-66
2021/03/31 16:22:24;;;;;;;;;;;;;;;;;;5085575;28;20450;-67
2021/03/31 16:24:50;;;;;;;;;;;;;;;;;;5082098;28;19924;-66
2021/03/31 16:27:17;;;;;;;;;;;;;;;;;;5081759;28;19924;-65
2021/03/31 16:29:56;;;;;;;;;;;;;;;;;;5081819;28;19978;-66
2021/03/31 16:32:22;;;;;;;;;;;;;;;;;;5085653;28;20115;-66
2021/03/31 16:34:48;;;;;;;;;;;;;;;;;;5083112;28;20303;-65
2021/03/31 16:37:15;;;;;;;;;;;;;;;;;;5079426;28;19925;-65
2021/03/31 16:39:41;;;;;;;;;;;;;;;;;;5084755;28;20027;-65
2021/03/31 16:42:08;;;;;;;;;;;;;;;;;;5082462;28;20360;-65
2021/03/31 16:44:34;;;;;;;;;;;;;;;;;;5082304;28;20308;-65
2021/03/31 16:47:01;;;;;;;;;;;;;;;;;;5084513;28;20379;-66
2021/03/31 16:49:27;;;;;;;;;;;;;;;;;;5083235;28;19932;-66
2021/03/31 16:51:54;;;;;;;;;;;;;;;;;;5084917;28;19960;-66
2021/03/31 16:54:20;;;;;;;;;;;;;;;;;;5093672;28;19924;-66
2021/03/31 16:56:47;;;;;;;;;;;;;;;;;;5083632;28;19924;-65
2021/03/31 16:59:13;;;;;;;;;;;;;;;;;;5082753;28;20346;-65
2021/03/31 17:01:40;;;;;;;;;;;;;;;;;;5084291;28;19924;-65
2021/03/31 17:04:06;;;;;;;;;;;;;;;;;;5084690;28;20346;-65
2021/03/31 17:06:33;;;;;;;;;;;;;;;;;;5079197;28;19924;-65
2021/03/31 17:08:59;;;;;;;;;;;;;;;;;;5083229;28;20023;-65
2021/03/31 17:11:26;;;;;;;;;;;;;;;;;;5082206;28;19924;-65
2021/03/31 17:13:53;;;;;;;;;;;;;;;;;;5081695;28;19959;-64